sensor_id;sensor_type;location;lat;lon;timestamp;P1;durP1;ratioP1;P2;durP2;ratioP2
19830;SDS011;10076;52.008;4.708;2022-09-12T00:01:21;17.92;;;8.60;;
19830;SDS011;10076;52.008;4.708;2022-09-12T00:03:53;13.88;;;7.88;;
19830;SDS011;10076;52.008;4.708;2022-09-12T00:06:23;12.85;;;7.28;;
19830;SDS011;10076;52.008;4.708;2022-09-12T00:08:54;11.93;;;7.32;;
19830;SDS011;10076;52.008;4.708;2022-09-12T00:11:20;12.80;;;7.60;;
19830;SDS011;10076;52.008;4.708;2022-09-12T00:13:46;16.38;;;8.75;;
19830;SDS011;10076;52.008;4.708;2022-09-12T00:16:19;12.15;;;7.40;;
19830;SDS011;10076;52.008;4.708;2022-09-12T00:18:47;13.02;;;7.05;;
19830;SDS011;10076;52.008;4.708;2022-09-12T00:21:14;13.68;;;7.43;;
19830;SDS011;10076;52.008;4.708;2022-09-12T00:23:40;14.93;;;7.25;;
19830;SDS011;10076;52.008;4.708;2022-09-12T00:26:06;12.73;;;7.32;;
19830;SDS011;10076;52.008;4.708;2022-09-12T00:28:32;13.05;;;7.60;;
19830;SDS011;10076;52.008;4.708;2022-09-12T00:30:59;15.95;;;8.10;;
19830;SDS011;10076;52.008;4.708;2022-09-12T00:33:24;14.05;;;7.95;;
19830;SDS011;10076;52.008;4.708;2022-09-12T00:35:50;13.80;;;8.02;;
19830;SDS011;10076;52.008;4.708;2022-09-12T00:38:17;13.63;;;7.65;;
19830;SDS011;10076;52.008;4.708;2022-09-12T00:40:43;14.82;;;8.18;;
19830;SDS011;10076;52.008;4.708;2022-09-12T00:43:10;12.48;;;7.22;;
19830;SDS011;10076;52.008;4.708;2022-09-12T00:45:57;15.27;;;7.57;;
19830;SDS011;10076;52.008;4.708;2022-09-12T00:48:31;15.23;;;7.90;;
19830;SDS011;10076;52.008;4.708;2022-09-12T00:51:04;13.18;;;7.07;;
19830;SDS011;10076;52.008;4.708;2022-09-12T00:53:30;13.60;;;7.88;;
19830;SDS011;10076;52.008;4.708;2022-09-12T00:55:55;13.05;;;7.47;;
19830;SDS011;10076;52.008;4.708;2022-09-12T00:58:29;15.23;;;7.65;;
19830;SDS011;10076;52.008;4.708;2022-09-12T01:00:59;14.65;;;7.65;;
19830;SDS011;10076;52.008;4.708;2022-09-12T01:03:25;14.13;;;7.50;;
19830;SDS011;10076;52.008;4.708;2022-09-12T01:06:02;14.07;;;7.80;;
19830;SDS011;10076;52.008;4.708;2022-09-12T01:08:33;19.15;;;7.93;;
19830;SDS011;10076;52.008;4.708;2022-09-12T01:11:01;19.30;;;8.15;;
19830;SDS011;10076;52.008;4.708;2022-09-12T01:13:27;12.60;;;7.43;;
19830;SDS011;10076;52.008;4.708;2022-09-12T01:15:53;13.27;;;7.30;;
19830;SDS011;10076;52.008;4.708;2022-09-12T01:18:36;14.55;;;6.72;;
19830;SDS011;10076;52.008;4.708;2022-09-12T01:27:18;14.80;;;7.00;;
19830;SDS011;10076;52.008;4.708;2022-09-12T01:32:30;17.33;;;7.72;;
19830;SDS011;10076;52.008;4.708;2022-09-12T01:38:29;15.98;;;8.27;;
19830;SDS011;10076;52.008;4.708;2022-09-12T01:44:00;12.95;;;8.30;;
19830;SDS011;10076;52.008;4.708;2022-09-12T01:49:19;12.93;;;7.20;;
19830;SDS011;10076;52.008;4.708;2022-09-12T01:51:51;17.33;;;8.20;;
19830;SDS011;10076;52.008;4.708;2022-09-12T01:54:25;14.70;;;7.97;;
19830;SDS011;10076;52.008;4.708;2022-09-12T01:56:56;13.43;;;7.50;;
19830;SDS011;10076;52.008;4.708;2022-09-12T01:59:28;13.77;;;7.72;;
19830;SDS011;10076;52.008;4.708;2022-09-12T02:01:59;15.25;;;8.25;;
19830;SDS011;10076;52.008;4.708;2022-09-12T02:04:53;17.15;;;8.48;;
19830;SDS011;10076;52.008;4.708;2022-09-12T02:07:32;15.25;;;7.95;;
19830;SDS011;10076;52.008;4.708;2022-09-12T02:10:13;15.63;;;8.43;;
19830;SDS011;10076;52.008;4.708;2022-09-12T02:12:43;15.55;;;8.07;;
19830;SDS011;10076;52.008;4.708;2022-09-12T02:15:16;13.55;;;7.35;;
19830;SDS011;10076;52.008;4.708;2022-09-12T02:17:45;16.20;;;8.52;;
19830;SDS011;10076;52.008;4.708;2022-09-12T02:22:48;14.32;;;7.68;;
19830;SDS011;10076;52.008;4.708;2022-09-12T02:25:17;16.63;;;8.50;;
19830;SDS011;10076;52.008;4.708;2022-09-12T02:27:44;17.95;;;8.05;;
19830;SDS011;10076;52.008;4.708;2022-09-12T02:30:13;18.10;;;8.25;;
19830;SDS011;10076;52.008;4.708;2022-09-12T02:35:28;18.10;;;8.98;;
19830;SDS011;10076;52.008;4.708;2022-09-12T02:37:58;18.48;;;8.93;;
19830;SDS011;10076;52.008;4.708;2022-09-12T02:40:28;18.95;;;8.70;;
19830;SDS011;10076;52.008;4.708;2022-09-12T02:42:54;16.45;;;8.82;;
19830;SDS011;10076;52.008;4.708;2022-09-12T02:45:20;14.55;;;7.68;;
19830;SDS011;10076;52.008;4.708;2022-09-12T02:50:30;17.50;;;8.18;;
19830;SDS011;10076;52.008;4.708;2022-09-12T02:52:56;17.55;;;9.02;;
19830;SDS011;10076;52.008;4.708;2022-09-12T02:55:27;16.48;;;8.43;;
19830;SDS011;10076;52.008;4.708;2022-09-12T02:57:55;19.13;;;9.13;;
19830;SDS011;10076;52.008;4.708;2022-09-12T03:00:20;17.02;;;8.32;;
19830;SDS011;10076;52.008;4.708;2022-09-12T03:05:29;15.25;;;8.15;;
19830;SDS011;10076;52.008;4.708;2022-09-12T03:10:39;16.50;;;8.65;;
19830;SDS011;10076;52.008;4.708;2022-09-12T03:16:07;16.73;;;8.30;;
19830;SDS011;10076;52.008;4.708;2022-09-12T03:19:05;13.80;;;7.82;;
19830;SDS011;10076;52.008;4.708;2022-09-12T03:24:35;17.42;;;8.07;;
19830;SDS011;10076;52.008;4.708;2022-09-12T03:27:15;16.40;;;7.97;;
19830;SDS011;10076;52.008;4.708;2022-09-12T03:29:45;15.88;;;7.78;;
19830;SDS011;10076;52.008;4.708;2022-09-12T03:32:12;13.93;;;7.00;;
19830;SDS011;10076;52.008;4.708;2022-09-12T03:34:38;15.02;;;8.05;;
19830;SDS011;10076;52.008;4.708;2022-09-12T03:37:04;16.05;;;8.40;;
19830;SDS011;10076;52.008;4.708;2022-09-12T03:39:29;14.80;;;7.20;;
19830;SDS011;10076;52.008;4.708;2022-09-12T03:41:55;15.80;;;8.18;;
19830;SDS011;10076;52.008;4.708;2022-09-12T03:44:20;16.33;;;7.85;;
19830;SDS011;10076;52.008;4.708;2022-09-12T03:46:46;15.13;;;7.78;;
19830;SDS011;10076;52.008;4.708;2022-09-12T03:49:12;15.77;;;7.78;;
19830;SDS011;10076;52.008;4.708;2022-09-12T03:51:38;15.70;;;7.88;;
19830;SDS011;10076;52.008;4.708;2022-09-12T03:54:03;14.38;;;7.15;;
19830;SDS011;10076;52.008;4.708;2022-09-12T03:56:29;16.70;;;7.68;;
19830;SDS011;10076;52.008;4.708;2022-09-12T03:58:54;17.38;;;8.68;;
19830;SDS011;10076;52.008;4.708;2022-09-12T04:01:20;15.38;;;7.80;;
19830;SDS011;10076;52.008;4.708;2022-09-12T04:03:47;17.30;;;7.78;;
19830;SDS011;10076;52.008;4.708;2022-09-12T04:06:14;14.88;;;7.75;;
19830;SDS011;10076;52.008;4.708;2022-09-12T04:08:42;16.38;;;8.07;;
19830;SDS011;10076;52.008;4.708;2022-09-12T04:11:11;17.33;;;7.72;;
19830;SDS011;10076;52.008;4.708;2022-09-12T04:13:38;15.63;;;8.30;;
19830;SDS011;10076;52.008;4.708;2022-09-12T04:16:05;17.15;;;8.10;;
19830;SDS011;10076;52.008;4.708;2022-09-12T04:18:31;15.40;;;7.15;;
19830;SDS011;10076;52.008;4.708;2022-09-12T04:20:57;16.67;;;7.80;;
19830;SDS011;10076;52.008;4.708;2022-09-12T04:23:22;20.85;;;8.85;;
19830;SDS011;10076;52.008;4.708;2022-09-12T04:25:57;13.43;;;7.38;;
19830;SDS011;10076;52.008;4.708;2022-09-12T04:28:24;16.15;;;7.72;;
19830;SDS011;10076;52.008;4.708;2022-09-12T04:30:50;15.35;;;7.63;;
19830;SDS011;10076;52.008;4.708;2022-09-12T04:33:15;14.07;;;8.15;;
19830;SDS011;10076;52.008;4.708;2022-09-12T04:35:41;17.35;;;9.13;;
19830;SDS011;10076;52.008;4.708;2022-09-12T04:38:07;17.95;;;8.48;;
19830;SDS011;10076;52.008;4.708;2022-09-12T04:40:33;19.35;;;7.93;;
19830;SDS011;10076;52.008;4.708;2022-09-12T04:42:58;17.55;;;8.25;;
19830;SDS011;10076;52.008;4.708;2022-09-12T04:45:23;16.15;;;7.40;;
19830;SDS011;10076;52.008;4.708;2022-09-12T04:47:49;18.08;;;7.97;;
19830;SDS011;10076;52.008;4.708;2022-09-12T04:50:15;20.00;;;8.25;;
19830;SDS011;10076;52.008;4.708;2022-09-12T04:52:40;18.65;;;8.65;;
19830;SDS011;10076;52.008;4.708;2022-09-12T04:55:06;16.00;;;7.65;;
19830;SDS011;10076;52.008;4.708;2022-09-12T04:57:32;17.85;;;8.88;;
19830;SDS011;10076;52.008;4.708;2022-09-12T04:59:59;17.33;;;8.27;;
19830;SDS011;10076;52.008;4.708;2022-09-12T05:02:25;16.90;;;7.85;;
19830;SDS011;10076;52.008;4.708;2022-09-12T05:04:50;18.02;;;8.13;;
19830;SDS011;10076;52.008;4.708;2022-09-12T05:07:16;20.02;;;8.38;;
19830;SDS011;10076;52.008;4.708;2022-09-12T05:09:42;16.30;;;8.07;;
19830;SDS011;10076;52.008;4.708;2022-09-12T05:12:08;18.70;;;8.80;;
19830;SDS011;10076;52.008;4.708;2022-09-12T05:14:33;19.75;;;8.73;;
19830;SDS011;10076;52.008;4.708;2022-09-12T05:16:59;21.00;;;9.63;;
19830;SDS011;10076;52.008;4.708;2022-09-12T05:19:25;17.70;;;8.27;;
19830;SDS011;10076;52.008;4.708;2022-09-12T05:21:51;18.95;;;9.00;;
19830;SDS011;10076;52.008;4.708;2022-09-12T05:24:16;18.85;;;8.93;;
19830;SDS011;10076;52.008;4.708;2022-09-12T05:26:42;21.27;;;8.38;;
19830;SDS011;10076;52.008;4.708;2022-09-12T05:29:07;17.92;;;8.77;;
19830;SDS011;10076;52.008;4.708;2022-09-12T05:31:32;19.65;;;8.52;;
19830;SDS011;10076;52.008;4.708;2022-09-12T05:33:58;21.67;;;9.00;;
19830;SDS011;10076;52.008;4.708;2022-09-12T05:36:25;21.10;;;9.02;;
19830;SDS011;10076;52.008;4.708;2022-09-12T05:38:54;18.60;;;9.25;;
19830;SDS011;10076;52.008;4.708;2022-09-12T05:41:23;20.13;;;9.10;;
19830;SDS011;10076;52.008;4.708;2022-09-12T05:43:55;19.20;;;8.05;;
19830;SDS011;10076;52.008;4.708;2022-09-12T05:46:24;16.15;;;8.38;;
19830;SDS011;10076;52.008;4.708;2022-09-12T05:48:51;21.67;;;9.13;;
19830;SDS011;10076;52.008;4.708;2022-09-12T05:51:19;20.88;;;9.38;;
19830;SDS011;10076;52.008;4.708;2022-09-12T05:53:48;17.58;;;8.88;;
19830;SDS011;10076;52.008;4.708;2022-09-12T05:56:16;16.15;;;8.50;;
19830;SDS011;10076;52.008;4.708;2022-09-12T05:58:44;20.35;;;9.50;;
19830;SDS011;10076;52.008;4.708;2022-09-12T06:01:15;19.10;;;8.60;;
19830;SDS011;10076;52.008;4.708;2022-09-12T06:03:45;21.25;;;8.70;;
19830;SDS011;10076;52.008;4.708;2022-09-12T06:06:13;15.75;;;8.13;;
19830;SDS011;10076;52.008;4.708;2022-09-12T06:08:40;19.05;;;8.95;;
19830;SDS011;10076;52.008;4.708;2022-09-12T06:11:07;18.60;;;7.95;;
19830;SDS011;10076;52.008;4.708;2022-09-12T06:13:34;19.38;;;9.50;;
19830;SDS011;10076;52.008;4.708;2022-09-12T06:16:07;19.17;;;8.60;;
19830;SDS011;10076;52.008;4.708;2022-09-12T06:18:34;18.20;;;8.40;;
19830;SDS011;10076;52.008;4.708;2022-09-12T06:21:04;21.95;;;11.50;;
19830;SDS011;10076;52.008;4.708;2022-09-12T06:23:31;18.17;;;8.63;;
19830;SDS011;10076;52.008;4.708;2022-09-12T06:25:57;21.77;;;9.70;;
19830;SDS011;10076;52.008;4.708;2022-09-12T06:28:23;23.67;;;9.77;;
19830;SDS011;10076;52.008;4.708;2022-09-12T06:30:48;18.88;;;9.35;;
19830;SDS011;10076;52.008;4.708;2022-09-12T06:33:14;21.70;;;9.60;;
19830;SDS011;10076;52.008;4.708;2022-09-12T06:35:40;20.40;;;9.80;;
19830;SDS011;10076;52.008;4.708;2022-09-12T06:38:05;19.67;;;9.27;;
19830;SDS011;10076;52.008;4.708;2022-09-12T06:40:31;17.25;;;8.95;;
19830;SDS011;10076;52.008;4.708;2022-09-12T06:42:56;20.80;;;9.68;;
19830;SDS011;10076;52.008;4.708;2022-09-12T06:45:22;19.80;;;9.70;;
19830;SDS011;10076;52.008;4.708;2022-09-12T06:47:47;19.52;;;9.07;;
19830;SDS011;10076;52.008;4.708;2022-09-12T06:50:12;18.75;;;9.48;;
19830;SDS011;10076;52.008;4.708;2022-09-12T06:52:38;20.17;;;9.10;;
19830;SDS011;10076;52.008;4.708;2022-09-12T06:55:03;18.52;;;9.13;;
19830;SDS011;10076;52.008;4.708;2022-09-12T06:57:29;18.27;;;9.60;;
19830;SDS011;10076;52.008;4.708;2022-09-12T06:59:56;20.85;;;9.65;;
19830;SDS011;10076;52.008;4.708;2022-09-12T07:02:22;20.60;;;10.20;;
19830;SDS011;10076;52.008;4.708;2022-09-12T07:04:49;24.52;;;9.77;;
19830;SDS011;10076;52.008;4.708;2022-09-12T07:07:15;19.60;;;9.30;;
19830;SDS011;10076;52.008;4.708;2022-09-12T07:09:41;22.02;;;9.75;;
19830;SDS011;10076;52.008;4.708;2022-09-12T07:12:06;20.75;;;10.25;;
19830;SDS011;10076;52.008;4.708;2022-09-12T07:14:32;22.73;;;9.70;;
19830;SDS011;10076;52.008;4.708;2022-09-12T07:16:57;26.15;;;11.75;;
19830;SDS011;10076;52.008;4.708;2022-09-12T07:19:22;18.33;;;10.10;;
19830;SDS011;10076;52.008;4.708;2022-09-12T07:21:48;20.63;;;9.75;;
19830;SDS011;10076;52.008;4.708;2022-09-12T07:24:14;21.13;;;10.52;;
19830;SDS011;10076;52.008;4.708;2022-09-12T07:26:39;20.20;;;10.18;;
19830;SDS011;10076;52.008;4.708;2022-09-12T07:29:06;19.70;;;9.27;;
19830;SDS011;10076;52.008;4.708;2022-09-12T07:31:34;22.83;;;11.10;;
19830;SDS011;10076;52.008;4.708;2022-09-12T07:33:59;20.05;;;9.82;;
19830;SDS011;10076;52.008;4.708;2022-09-12T07:36:30;19.75;;;9.70;;
19830;SDS011;10076;52.008;4.708;2022-09-12T07:38:56;19.45;;;10.57;;
19830;SDS011;10076;52.008;4.708;2022-09-12T07:41:24;20.02;;;9.93;;
19830;SDS011;10076;52.008;4.708;2022-09-12T07:43:52;21.75;;;10.27;;
19830;SDS011;10076;52.008;4.708;2022-09-12T07:46:18;19.50;;;9.95;;
19830;SDS011;10076;52.008;4.708;2022-09-12T07:48:43;19.05;;;9.52;;
19830;SDS011;10076;52.008;4.708;2022-09-12T07:51:13;20.95;;;10.73;;
19830;SDS011;10076;52.008;4.708;2022-09-12T07:53:40;18.85;;;10.05;;
19830;SDS011;10076;52.008;4.708;2022-09-12T07:56:06;21.35;;;10.95;;
19830;SDS011;10076;52.008;4.708;2022-09-12T07:58:34;20.67;;;10.68;;
19830;SDS011;10076;52.008;4.708;2022-09-12T08:01:01;20.10;;;10.77;;
19830;SDS011;10076;52.008;4.708;2022-09-12T08:03:28;22.65;;;11.15;;
19830;SDS011;10076;52.008;4.708;2022-09-12T08:05:53;22.92;;;11.63;;
19830;SDS011;10076;52.008;4.708;2022-09-12T08:08:19;19.10;;;10.18;;
19830;SDS011;10076;52.008;4.708;2022-09-12T08:10:44;17.15;;;10.20;;
19830;SDS011;10076;52.008;4.708;2022-09-12T08:13:10;19.65;;;10.65;;
19830;SDS011;10076;52.008;4.708;2022-09-12T08:15:35;20.40;;;9.52;;
19830;SDS011;10076;52.008;4.708;2022-09-12T08:18:00;19.63;;;10.48;;
19830;SDS011;10076;52.008;4.708;2022-09-12T08:20:26;21.55;;;10.93;;
19830;SDS011;10076;52.008;4.708;2022-09-12T08:22:51;19.02;;;9.15;;
19830;SDS011;10076;52.008;4.708;2022-09-12T08:25:16;18.50;;;9.95;;
19830;SDS011;10076;52.008;4.708;2022-09-12T08:27:42;18.02;;;9.63;;
19830;SDS011;10076;52.008;4.708;2022-09-12T08:30:07;19.20;;;9.98;;
19830;SDS011;10076;52.008;4.708;2022-09-12T08:32:33;16.77;;;9.13;;
19830;SDS011;10076;52.008;4.708;2022-09-12T08:34:59;16.38;;;9.77;;
19830;SDS011;10076;52.008;4.708;2022-09-12T08:37:24;16.13;;;9.30;;
19830;SDS011;10076;52.008;4.708;2022-09-12T08:39:49;16.98;;;9.07;;
19830;SDS011;10076;52.008;4.708;2022-09-12T08:42:19;15.73;;;8.50;;
19830;SDS011;10076;52.008;4.708;2022-09-12T08:47:42;15.38;;;8.32;;
19830;SDS011;10076;52.008;4.708;2022-09-12T08:57:57;12.93;;;7.80;;
19830;SDS011;10076;52.008;4.708;2022-09-12T09:00:25;12.75;;;6.53;;
19830;SDS011;10076;52.008;4.708;2022-09-12T09:05:48;13.20;;;7.28;;
19830;SDS011;10076;52.008;4.708;2022-09-12T09:08:39;10.73;;;6.80;;
19830;SDS011;10076;52.008;4.708;2022-09-12T09:11:30;12.65;;;6.70;;
19830;SDS011;10076;52.008;4.708;2022-09-12T09:13:59;10.82;;;6.70;;
19830;SDS011;10076;52.008;4.708;2022-09-12T09:16:43;10.52;;;5.88;;
19830;SDS011;10076;52.008;4.708;2022-09-12T09:22:22;8.23;;;5.68;;
19830;SDS011;10076;52.008;4.708;2022-09-12T09:24:54;9.95;;;6.25;;
19830;SDS011;10076;52.008;4.708;2022-09-12T09:27:28;5.93;;;4.43;;
19830;SDS011;10076;52.008;4.708;2022-09-12T09:29:54;7.15;;;4.47;;
19830;SDS011;10076;52.008;4.708;2022-09-12T09:35:01;7.97;;;4.65;;
19830;SDS011;10076;52.008;4.708;2022-09-12T09:45:47;7.65;;;4.65;;
19830;SDS011;10076;52.008;4.708;2022-09-12T09:48:21;6.70;;;4.70;;
19830;SDS011;10076;52.008;4.708;2022-09-12T09:50:48;7.90;;;4.50;;
19830;SDS011;10076;52.008;4.708;2022-09-12T09:53:57;6.80;;;4.82;;
19830;SDS011;10076;52.008;4.708;2022-09-12T09:56:26;6.70;;;4.95;;
19830;SDS011;10076;52.008;4.708;2022-09-12T09:59:07;6.78;;;4.30;;
19830;SDS011;10076;52.008;4.708;2022-09-12T10:01:56;6.65;;;4.50;;
19830;SDS011;10076;52.008;4.708;2022-09-12T10:04:31;7.90;;;4.93;;
19830;SDS011;10076;52.008;4.708;2022-09-12T10:06:59;7.30;;;5.03;;
19830;SDS011;10076;52.008;4.708;2022-09-12T10:09:27;5.82;;;3.47;;
19830;SDS011;10076;52.008;4.708;2022-09-12T10:11:56;5.43;;;3.60;;
19830;SDS011;10076;52.008;4.708;2022-09-12T10:17:00;3.53;;;3.22;;
19830;SDS011;10076;52.008;4.708;2022-09-12T10:19:37;6.20;;;4.25;;
19830;SDS011;10076;52.008;4.708;2022-09-12T10:22:04;4.75;;;3.90;;
19830;SDS011;10076;52.008;4.708;2022-09-12T10:27:06;5.40;;;3.53;;
19830;SDS011;10076;52.008;4.708;2022-09-12T10:29:33;4.60;;;3.63;;
19830;SDS011;10076;52.008;4.708;2022-09-12T10:32:06;3.55;;;3.10;;
19830;SDS011;10076;52.008;4.708;2022-09-12T10:34:34;6.65;;;3.70;;
19830;SDS011;10076;52.008;4.708;2022-09-12T10:37:06;12.05;;;9.75;;
19830;SDS011;10076;52.008;4.708;2022-09-12T10:39:34;6.78;;;4.00;;
19830;SDS011;10076;52.008;4.708;2022-09-12T10:42:02;5.28;;;3.33;;
19830;SDS011;10076;52.008;4.708;2022-09-12T10:44:29;5.53;;;3.70;;
19830;SDS011;10076;52.008;4.708;2022-09-12T10:46:56;5.15;;;3.80;;
19830;SDS011;10076;52.008;4.708;2022-09-12T10:51:52;4.45;;;3.33;;
19830;SDS011;10076;52.008;4.708;2022-09-12T10:54:19;4.00;;;3.22;;
19830;SDS011;10076;52.008;4.708;2022-09-12T10:59:38;4.35;;;3.38;;
19830;SDS011;10076;52.008;4.708;2022-09-12T11:04:50;4.68;;;3.17;;
19830;SDS011;10076;52.008;4.708;2022-09-12T11:10:08;4.55;;;3.33;;
19830;SDS011;10076;52.008;4.708;2022-09-12T11:19:01;4.55;;;3.45;;
19830;SDS011;10076;52.008;4.708;2022-09-12T11:22:03;5.60;;;3.80;;
19830;SDS011;10076;52.008;4.708;2022-09-12T11:26:59;5.57;;;3.95;;
19830;SDS011;10076;52.008;4.708;2022-09-12T11:34:51;4.15;;;3.10;;
19830;SDS011;10076;52.008;4.708;2022-09-12T11:39:53;3.67;;;3.28;;
19830;SDS011;10076;52.008;4.708;2022-09-12T11:42:25;4.90;;;3.50;;
19830;SDS011;10076;52.008;4.708;2022-09-12T11:45:03;4.30;;;3.17;;
19830;SDS011;10076;52.008;4.708;2022-09-12T11:47:39;6.40;;;3.75;;
19830;SDS011;10076;52.008;4.708;2022-09-12T11:50:30;3.20;;;2.90;;
19830;SDS011;10076;52.008;4.708;2022-09-12T11:53:29;3.50;;;2.80;;
19830;SDS011;10076;52.008;4.708;2022-09-12T11:55:53;5.15;;;3.95;;
19830;SDS011;10076;52.008;4.708;2022-09-12T11:58:25;3.47;;;2.80;;
19830;SDS011;10076;52.008;4.708;2022-09-12T12:00:55;4.55;;;2.88;;
19830;SDS011;10076;52.008;4.708;2022-09-12T12:03:29;3.67;;;2.90;;
19830;SDS011;10076;52.008;4.708;2022-09-12T12:06:11;3.42;;;2.40;;
19830;SDS011;10076;52.008;4.708;2022-09-12T12:08:43;4.70;;;3.08;;
19830;SDS011;10076;52.008;4.708;2022-09-12T12:11:11;4.35;;;3.33;;
19830;SDS011;10076;52.008;4.708;2022-09-12T12:13:50;3.28;;;2.72;;
19830;SDS011;10076;52.008;4.708;2022-09-12T12:16:25;4.88;;;3.05;;
19830;SDS011;10076;52.008;4.708;2022-09-12T12:18:53;2.95;;;2.33;;
19830;SDS011;10076;52.008;4.708;2022-09-12T12:21:30;3.83;;;2.70;;
19830;SDS011;10076;52.008;4.708;2022-09-12T12:24:42;3.42;;;2.50;;
19830;SDS011;10076;52.008;4.708;2022-09-12T12:27:04;2.75;;;2.40;;
19830;SDS011;10076;52.008;4.708;2022-09-12T12:29:47;3.70;;;2.50;;
19830;SDS011;10076;52.008;4.708;2022-09-12T12:34:41;2.90;;;2.70;;
19830;SDS011;10076;52.008;4.708;2022-09-12T12:42:08;3.67;;;2.70;;
19830;SDS011;10076;52.008;4.708;2022-09-12T12:47:12;4.03;;;2.83;;
19830;SDS011;10076;52.008;4.708;2022-09-12T12:49:42;3.25;;;2.70;;
19830;SDS011;10076;52.008;4.708;2022-09-12T12:52:15;3.67;;;2.80;;
19830;SDS011;10076;52.008;4.708;2022-09-12T13:02:32;3.35;;;2.90;;
19830;SDS011;10076;52.008;4.708;2022-09-12T13:05:04;3.38;;;2.75;;
19830;SDS011;10076;52.008;4.708;2022-09-12T13:07:40;3.65;;;2.80;;
19830;SDS011;10076;52.008;4.708;2022-09-12T13:10:18;6.25;;;2.90;;
19830;SDS011;10076;52.008;4.708;2022-09-12T13:12:50;3.55;;;2.28;;
19830;SDS011;10076;52.008;4.708;2022-09-12T13:18:24;3.25;;;2.47;;
19830;SDS011;10076;52.008;4.708;2022-09-12T13:21:00;2.90;;;2.47;;
19830;SDS011;10076;52.008;4.708;2022-09-12T13:23:33;3.70;;;2.58;;
19830;SDS011;10076;52.008;4.708;2022-09-12T13:25:59;3.13;;;2.25;;
19830;SDS011;10076;52.008;4.708;2022-09-12T13:28:26;3.92;;;2.47;;
19830;SDS011;10076;52.008;4.708;2022-09-12T13:31:01;3.10;;;2.30;;
19830;SDS011;10076;52.008;4.708;2022-09-12T13:44:17;3.35;;;2.80;;
19830;SDS011;10076;52.008;4.708;2022-09-12T13:46:46;3.33;;;2.72;;
19830;SDS011;10076;52.008;4.708;2022-09-12T13:49:19;4.68;;;2.97;;
19830;SDS011;10076;52.008;4.708;2022-09-12T13:51:57;3.03;;;2.70;;
19830;SDS011;10076;52.008;4.708;2022-09-12T13:54:25;5.25;;;2.53;;
19830;SDS011;10076;52.008;4.708;2022-09-12T13:56:51;2.90;;;2.60;;
19830;SDS011;10076;52.008;4.708;2022-09-12T13:59:16;4.15;;;2.75;;
19830;SDS011;10076;52.008;4.708;2022-09-12T14:01:43;3.13;;;2.65;;
19830;SDS011;10076;52.008;4.708;2022-09-12T14:04:22;2.25;;;2.03;;
19830;SDS011;10076;52.008;4.708;2022-09-12T14:07:29;4.28;;;3.00;;
19830;SDS011;10076;52.008;4.708;2022-09-12T14:09:54;3.55;;;2.70;;
19830;SDS011;10076;52.008;4.708;2022-09-12T14:12:26;2.85;;;2.30;;
19830;SDS011;10076;52.008;4.708;2022-09-12T14:14:54;2.55;;;1.90;;
19830;SDS011;10076;52.008;4.708;2022-09-12T14:17:24;2.45;;;2.25;;
19830;SDS011;10076;52.008;4.708;2022-09-12T14:20:00;2.00;;;1.77;;
19830;SDS011;10076;52.008;4.708;2022-09-12T14:22:29;2.20;;;2.00;;
19830;SDS011;10076;52.008;4.708;2022-09-12T14:24:56;1.73;;;1.63;;
19830;SDS011;10076;52.008;4.708;2022-09-12T14:27:24;3.75;;;2.00;;
19830;SDS011;10076;52.008;4.708;2022-09-12T14:29:55;3.65;;;2.05;;
19830;SDS011;10076;52.008;4.708;2022-09-12T14:32:26;3.13;;;2.05;;
19830;SDS011;10076;52.008;4.708;2022-09-12T14:35:04;3.00;;;2.03;;
19830;SDS011;10076;52.008;4.708;2022-09-12T14:37:36;2.42;;;1.90;;
19830;SDS011;10076;52.008;4.708;2022-09-12T14:40:03;3.40;;;2.00;;
19830;SDS011;10076;52.008;4.708;2022-09-12T14:42:41;2.50;;;2.10;;
19830;SDS011;10076;52.008;4.708;2022-09-12T14:45:14;2.92;;;1.88;;
19830;SDS011;10076;52.008;4.708;2022-09-12T14:47:42;4.07;;;1.90;;
19830;SDS011;10076;52.008;4.708;2022-09-12T14:50:16;4.93;;;1.98;;
19830;SDS011;10076;52.008;4.708;2022-09-12T14:52:44;3.97;;;2.20;;
19830;SDS011;10076;52.008;4.708;2022-09-12T14:57:40;4.35;;;2.75;;
19830;SDS011;10076;52.008;4.708;2022-09-12T15:00:14;2.60;;;1.98;;
19830;SDS011;10076;52.008;4.708;2022-09-12T15:02:44;1.63;;;1.52;;
19830;SDS011;10076;52.008;4.708;2022-09-12T15:07:39;2.00;;;1.80;;
19830;SDS011;10076;52.008;4.708;2022-09-12T15:12:42;2.55;;;1.92;;
19830;SDS011;10076;52.008;4.708;2022-09-12T15:15:15;2.28;;;2.08;;
19830;SDS011;10076;52.008;4.708;2022-09-12T15:17:43;2.97;;;1.48;;
19830;SDS011;10076;52.008;4.708;2022-09-12T15:20:09;1.95;;;1.70;;
19830;SDS011;10076;52.008;4.708;2022-09-12T15:22:36;3.85;;;1.60;;
19830;SDS011;10076;52.008;4.708;2022-09-12T15:25:02;2.50;;;1.63;;
19830;SDS011;10076;52.008;4.708;2022-09-12T15:27:29;2.95;;;1.80;;
19830;SDS011;10076;52.008;4.708;2022-09-12T15:29:54;2.38;;;1.73;;
19830;SDS011;10076;52.008;4.708;2022-09-12T15:32:27;2.08;;;1.83;;
19830;SDS011;10076;52.008;4.708;2022-09-12T15:34:53;4.53;;;2.30;;
19830;SDS011;10076;52.008;4.708;2022-09-12T15:37:19;3.22;;;2.13;;
19830;SDS011;10076;52.008;4.708;2022-09-12T15:39:47;2.35;;;2.00;;
19830;SDS011;10076;52.008;4.708;2022-09-12T15:42:13;2.28;;;1.88;;
19830;SDS011;10076;52.008;4.708;2022-09-12T15:44:39;2.22;;;2.00;;
19830;SDS011;10076;52.008;4.708;2022-09-12T15:47:05;3.60;;;1.90;;
19830;SDS011;10076;52.008;4.708;2022-09-12T15:49:30;2.75;;;1.80;;
19830;SDS011;10076;52.008;4.708;2022-09-12T15:51:56;2.15;;;1.88;;
19830;SDS011;10076;52.008;4.708;2022-09-12T15:54:24;3.15;;;2.20;;
19830;SDS011;10076;52.008;4.708;2022-09-12T15:56:49;2.42;;;1.80;;
19830;SDS011;10076;52.008;4.708;2022-09-12T15:59:15;2.60;;;1.88;;
19830;SDS011;10076;52.008;4.708;2022-09-12T16:01:40;2.42;;;2.17;;
19830;SDS011;10076;52.008;4.708;2022-09-12T16:04:22;2.90;;;2.33;;
19830;SDS011;10076;52.008;4.708;2022-09-12T16:06:49;2.10;;;1.70;;
19830;SDS011;10076;52.008;4.708;2022-09-12T16:09:15;2.33;;;1.85;;
19830;SDS011;10076;52.008;4.708;2022-09-12T16:11:41;3.22;;;1.95;;
19830;SDS011;10076;52.008;4.708;2022-09-12T16:14:07;4.05;;;2.20;;
19830;SDS011;10076;52.008;4.708;2022-09-12T16:16:32;3.05;;;2.38;;
19830;SDS011;10076;52.008;4.708;2022-09-12T16:18:58;2.72;;;1.58;;
19830;SDS011;10076;52.008;4.708;2022-09-12T16:21:24;2.63;;;2.28;;
19830;SDS011;10076;52.008;4.708;2022-09-12T16:23:50;2.65;;;2.20;;
19830;SDS011;10076;52.008;4.708;2022-09-12T16:26:16;3.55;;;2.28;;
19830;SDS011;10076;52.008;4.708;2022-09-12T16:28:41;4.30;;;1.70;;
19830;SDS011;10076;52.008;4.708;2022-09-12T16:31:07;2.30;;;2.08;;
19830;SDS011;10076;52.008;4.708;2022-09-12T16:33:35;3.17;;;2.17;;
19830;SDS011;10076;52.008;4.708;2022-09-12T16:36:02;3.03;;;2.50;;
19830;SDS011;10076;52.008;4.708;2022-09-12T16:38:42;3.38;;;2.30;;
19830;SDS011;10076;52.008;4.708;2022-09-12T16:41:08;2.95;;;2.08;;
19830;SDS011;10076;52.008;4.708;2022-09-12T16:43:34;2.67;;;2.10;;
19830;SDS011;10076;52.008;4.708;2022-09-12T16:48:26;2.22;;;1.80;;
19830;SDS011;10076;52.008;4.708;2022-09-12T16:50:55;3.20;;;2.38;;
19830;SDS011;10076;52.008;4.708;2022-09-12T16:53:22;2.38;;;2.00;;
19830;SDS011;10076;52.008;4.708;2022-09-12T16:55:48;2.42;;;1.95;;
19830;SDS011;10076;52.008;4.708;2022-09-12T16:58:14;3.72;;;2.13;;
19830;SDS011;10076;52.008;4.708;2022-09-12T17:00:39;2.90;;;2.10;;
19830;SDS011;10076;52.008;4.708;2022-09-12T17:03:04;4.28;;;2.10;;
19830;SDS011;10076;52.008;4.708;2022-09-12T17:05:29;3.60;;;2.05;;
19830;SDS011;10076;52.008;4.708;2022-09-12T17:07:55;3.58;;;2.17;;
19830;SDS011;10076;52.008;4.708;2022-09-12T17:10:20;2.42;;;2.20;;